Airfield :
LOGIN :

Register | Disclaimer

   EN    FR    IT 

 










Legend :    VFR   Marginal VFR   IFR   Intensive IFR   Very Intensive IFR
Visi :
Ceiling :
>= 8 km
>= 3000ft
5 to 8 km
1000 to 3000 ft
1500m to 5 km
500 to 1000 ft
800 to 1500m
200 to 500 ft
< 800m
< 200 ft
Symbols :   Thunderstorms  Fog  Heavy snow  Heavy precipitations  Wind > 20 kt
SIGMETs :     Misc.  Thunderstorms  Icing  Turbulence  Mountain Waves  Volcanic Ashes






- Airport Elevation : 568 ft


UUMO - Ostafyevo International

CURRENT METAR :
  • 270330Z 11002MPS 5000 -RA BR BKN036 10/10 Q1025 R26/290050 NOSIG RMK QFE753/1004

EXPIRED METARs :
  • 270300Z 06001MPS 5000 -RA BR NSC 10/10 Q1024 R26/290050 NOSIG RMK QFE753/1004
  • 270230Z 31001MPS 5000 -RA BR NSC 10/10 Q1024 R26/290050 NOSIG RMK QFE753/1004
  • 270200Z 00000MPS 5000 -RA BR NSC 10/10 Q1024 R26/290050 NOSIG RMK QFE752/1003
  • 270130Z 21001MPS 6000 -RA NSC 10/10 Q1024 R26/290050 NOSIG RMK QFE753/1004
  • 270100Z 06002MPS 9000 -RA NSC 10/10 Q1025 R26/190055 NOSIG RMK QFE753/1004

TAF TAF UUMO
Valid from the 27 at 03:00 until the 27 at 12:00 UTC


270159Z 2703/2712 VRB01MPS 6000 BKN040
TEMPO 2703/2708 -RA
FM270800 19003MPS 9999 BKN015
TEMPO 2708/2712 -SHRA SCT020CB



MET'MAP, your aeronautical weather chart ! - Copyright ORBIFLY December 2007 - Disclaimer

ORBIFLY MET'MAP TEAM :

Programming & Development : Alexandra Zaïnal
Concept & original design : Baudouin d'Aumeries
Assistance for programming : Marc-Olivier Méhu
Technical & hardware support : Manuel Goepfert

Contact : metmap@orbifly.com




SOURCES & CREDITS :

   NOAA